sensor_id;sensor_type;location;lat;lon;timestamp;pressure;altitude;pressure_sealevel;temperature;humidity
37238;BME280;23129;49.662;8.448;2023-04-15T00:01:13;99837.41;;;7.69;nan
37238;BME280;23129;49.662;8.448;2023-04-15T00:03:46;99840.25;;;7.60;nan
37238;BME280;23129;49.662;8.448;2023-04-15T00:06:14;99837.97;;;7.48;nan
37238;BME280;23129;49.662;8.448;2023-04-15T00:08:43;99837.31;;;7.38;nan
37238;BME280;23129;49.662;8.448;2023-04-15T00:11:13;99831.41;;;7.31;nan
37238;BME280;23129;49.662;8.448;2023-04-15T00:13:43;99828.94;;;7.25;nan
37238;BME280;23129;49.662;8.448;2023-04-15T00:16:12;99819.56;;;7.18;nan
37238;BME280;23129;49.662;8.448;2023-04-15T00:18:40;99819.72;;;7.12;nan
37238;BME280;23129;49.662;8.448;2023-04-15T00:21:09;99821.50;;;7.10;nan
37238;BME280;23129;49.662;8.448;2023-04-15T00:23:40;99820.66;;;7.08;nan
37238;BME280;23129;49.662;8.448;2023-04-15T00:26:08;99823.34;;;7.05;nan
37238;BME280;23129;49.662;8.448;2023-04-15T00:28:39;99821.72;;;7.01;nan
37238;BME280;23129;49.662;8.448;2023-04-15T00:31:08;99821.78;;;6.98;nan
37238;BME280;23129;49.662;8.448;2023-04-15T00:33:37;99816.56;;;6.98;nan
37238;BME280;23129;49.662;8.448;2023-04-15T00:36:06;99814.91;;;6.94;nan
37238;BME280;23129;49.662;8.448;2023-04-15T00:38:37;99815.94;;;6.88;nan
37238;BME280;23129;49.662;8.448;2023-04-15T00:41:06;99821.16;;;6.86;nan
37238;BME280;23129;49.662;8.448;2023-04-15T00:43:35;99812.50;;;6.84;nan
37238;BME280;23129;49.662;8.448;2023-04-15T00:46:06;99807.38;;;6.81;nan
37238;BME280;23129;49.662;8.448;2023-04-15T00:48:37;99811.84;;;6.76;nan
37238;BME280;23129;49.662;8.448;2023-04-15T00:51:06;99812.00;;;6.70;nan
37238;BME280;23129;49.662;8.448;2023-04-15T00:53:36;99806.94;;;6.62;nan
37238;BME280;23129;49.662;8.448;2023-04-15T00:56:05;99807.91;;;6.58;nan
37238;BME280;23129;49.662;8.448;2023-04-15T00:58:34;99807.16;;;6.52;nan
37238;BME280;23129;49.662;8.448;2023-04-15T01:01:05;99808.09;;;6.49;nan
37238;BME280;23129;49.662;8.448;2023-04-15T01:03:34;99808.94;;;6.50;nan
37238;BME280;23129;49.662;8.448;2023-04-15T01:06:03;99810.66;;;6.51;nan
37238;BME280;23129;49.662;8.448;2023-04-15T01:08:32;99812.38;;;6.52;nan
37238;BME280;23129;49.662;8.448;2023-04-15T01:11:02;99807.22;;;6.49;nan
37238;BME280;23129;49.662;8.448;2023-04-15T01:13:33;99803.81;;;6.47;nan
37238;BME280;23129;49.662;8.448;2023-04-15T01:16:05;99817.84;;;6.39;nan
37238;BME280;23129;49.662;8.448;2023-04-15T01:18:35;99818.81;;;6.35;nan
37238;BME280;23129;49.662;8.448;2023-04-15T01:21:06;99806.69;;;6.33;nan
37238;BME280;23129;49.662;8.448;2023-04-15T01:23:36;99798.94;;;6.31;nan
37238;BME280;23129;49.662;8.448;2023-04-15T01:26:08;99802.34;;;6.33;nan
37238;BME280;23129;49.662;8.448;2023-04-15T01:28:38;99804.06;;;6.34;nan
37238;BME280;23129;49.662;8.448;2023-04-15T01:31:08;99816.19;;;6.35;nan
37238;BME280;23129;49.662;8.448;2023-04-15T01:33:38;99817.09;;;6.33;nan
37238;BME280;23129;49.662;8.448;2023-04-15T01:36:09;99804.13;;;6.31;nan
37238;BME280;23129;49.662;8.448;2023-04-15T01:38:38;99809.47;;;6.25;nan
37238;BME280;23129;49.662;8.448;2023-04-15T01:41:08;99816.38;;;6.26;nan
37238;BME280;23129;49.662;8.448;2023-04-15T01:43:37;99808.56;;;6.26;nan
37238;BME280;23129;49.662;8.448;2023-04-15T01:46:09;99813.75;;;6.28;nan
37238;BME280;23129;49.662;8.448;2023-04-15T01:48:38;99809.47;;;6.25;nan
37238;BME280;23129;49.662;8.448;2023-04-15T01:51:07;99819.91;;;6.22;nan
37238;BME280;23129;49.662;8.448;2023-04-15T01:53:36;99811.38;;;6.17;nan
37238;BME280;23129;49.662;8.448;2023-04-15T01:56:05;99807.06;;;6.14;nan
37238;BME280;23129;49.662;8.448;2023-04-15T01:58:36;99806.28;;;6.11;nan
37238;BME280;23129;49.662;8.448;2023-04-15T02:01:05;99815.91;;;6.06;nan
37238;BME280;23129;49.662;8.448;2023-04-15T02:03:34;99818.53;;;6.06;nan
37238;BME280;23129;49.662;8.448;2023-04-15T02:06:03;99818.59;;;6.03;nan
37238;BME280;23129;49.662;8.448;2023-04-15T02:08:32;99814.28;;;6.00;nan
37238;BME280;23129;49.662;8.448;2023-04-15T02:11:01;99817.81;;;5.98;nan
37238;BME280;23129;49.662;8.448;2023-04-15T02:13:31;99818.75;;;5.93;nan
37238;BME280;23129;49.662;8.448;2023-04-15T02:16:02;99822.22;;;5.92;nan
37238;BME280;23129;49.662;8.448;2023-04-15T02:18:30;99818.84;;;5.87;nan
37238;BME280;23129;49.662;8.448;2023-04-15T02:21:00;99816.25;;;5.86;nan
37238;BME280;23129;49.662;8.448;2023-04-15T02:23:29;99815.41;;;5.85;nan
37238;BME280;23129;49.662;8.448;2023-04-15T02:25:58;99823.19;;;5.87;nan
37238;BME280;23129;49.662;8.448;2023-04-15T02:28:26;99823.16;;;5.88;nan
37238;BME280;23129;49.662;8.448;2023-04-15T02:30:55;99822.28;;;5.89;nan
37238;BME280;23129;49.662;8.448;2023-04-15T02:33:26;99818.91;;;5.84;nan
37238;BME280;23129;49.662;8.448;2023-04-15T02:35:55;99825.09;;;5.77;nan
37238;BME280;23129;49.662;8.448;2023-04-15T02:38:25;99819.13;;;5.72;nan
37238;BME280;23129;49.662;8.448;2023-04-15T02:40:54;99820.00;;;5.72;nan
37238;BME280;23129;49.662;8.448;2023-04-15T02:43:23;99815.69;;;5.70;nan
37238;BME280;23129;49.662;8.448;2023-04-15T02:45:52;99826.09;;;5.70;nan
37238;BME280;23129;49.662;8.448;2023-04-15T02:48:21;99815.75;;;5.67;nan
37238;BME280;23129;49.662;8.448;2023-04-15T02:50:51;99818.47;;;5.61;nan
37238;BME280;23129;49.662;8.448;2023-04-15T02:53:20;99829.88;;;5.54;nan
37238;BME280;23129;49.662;8.448;2023-04-15T02:55:49;99819.56;;;5.47;nan
37238;BME280;23129;49.662;8.448;2023-04-15T02:58:18;99823.94;;;5.44;nan
37238;BME280;23129;49.662;8.448;2023-04-15T03:00:46;99824.84;;;5.41;nan
37238;BME280;23129;49.662;8.448;2023-04-15T03:03:17;99833.53;;;5.40;nan
37238;BME280;23129;49.662;8.448;2023-04-15T03:05:46;99829.28;;;5.36;nan
37238;BME280;23129;49.662;8.448;2023-04-15T03:08:16;99829.34;;;5.32;nan
37238;BME280;23129;49.662;8.448;2023-04-15T03:10:45;99834.66;;;5.27;nan
37238;BME280;23129;49.662;8.448;2023-04-15T03:13:14;99831.25;;;5.23;nan
37238;BME280;23129;49.662;8.448;2023-04-15T03:15:44;99828.69;;;5.19;nan
37238;BME280;23129;49.662;8.448;2023-04-15T03:18:14;99835.75;;;5.11;nan
37238;BME280;23129;49.662;8.448;2023-04-15T03:20:43;99838.44;;;5.06;nan
37238;BME280;23129;49.662;8.448;2023-04-15T03:23:12;99839.34;;;5.03;nan
37238;BME280;23129;49.662;8.448;2023-04-15T03:25:44;99839.34;;;5.03;nan
37238;BME280;23129;49.662;8.448;2023-04-15T03:28:13;99835.91;;;5.01;nan
37238;BME280;23129;49.662;8.448;2023-04-15T03:30:42;99846.25;;;5.04;nan
37238;BME280;23129;49.662;8.448;2023-04-15T03:33:11;99840.16;;;5.07;nan
37238;BME280;23129;49.662;8.448;2023-04-15T03:35:40;99834.09;;;5.07;nan
37238;BME280;23129;49.662;8.448;2023-04-15T03:38:09;99833.28;;;5.03;nan
37238;BME280;23129;49.662;8.448;2023-04-15T03:40:39;99841.13;;;4.98;nan
37238;BME280;23129;49.662;8.448;2023-04-15T03:43:09;99830.84;;;4.92;nan
37238;BME280;23129;49.662;8.448;2023-04-15T03:45:38;99830.88;;;4.89;nan
37238;BME280;23129;49.662;8.448;2023-04-15T03:48:07;99830.00;;;4.90;nan
37238;BME280;23129;49.662;8.448;2023-04-15T03:50:44;99829.94;;;4.95;nan
37238;BME280;23129;49.662;8.448;2023-04-15T03:53:13;99829.00;;;4.99;nan
37238;BME280;23129;49.662;8.448;2023-04-15T03:55:42;99826.41;;;4.99;nan
37238;BME280;23129;49.662;8.448;2023-04-15T03:58:12;99826.41;;;5.00;nan
37238;BME280;23129;49.662;8.448;2023-04-15T04:00:41;99824.59;;;5.02;nan
37238;BME280;23129;49.662;8.448;2023-04-15T04:03:10;99824.66;;;5.01;nan
37238;BME280;23129;49.662;8.448;2023-04-15T04:05:39;99834.25;;;4.97;nan
37238;BME280;23129;49.662;8.448;2023-04-15T04:08:08;99825.63;;;4.92;nan
37238;BME280;23129;49.662;8.448;2023-04-15T04:10:40;99832.63;;;4.87;nan
37238;BME280;23129;49.662;8.448;2023-04-15T04:13:08;99830.06;;;4.86;nan
37238;BME280;23129;49.662;8.448;2023-04-15T04:15:38;99832.69;;;4.84;nan
37238;BME280;23129;49.662;8.448;2023-04-15T04:18:07;99837.88;;;4.84;nan
37238;BME280;23129;49.662;8.448;2023-04-15T04:20:36;99831.81;;;4.84;nan
37238;BME280;23129;49.662;8.448;2023-04-15T04:23:05;99839.66;;;4.82;nan
37238;BME280;23129;49.662;8.448;2023-04-15T04:25:34;99839.66;;;4.82;nan
37238;BME280;23129;49.662;8.448;2023-04-15T04:28:03;99839.66;;;4.82;nan
37238;BME280;23129;49.662;8.448;2023-04-15T04:30:32;99837.91;;;4.81;nan
37238;BME280;23129;49.662;8.448;2023-04-15T04:33:02;99845.72;;;4.83;nan
37238;BME280;23129;49.662;8.448;2023-04-15T04:35:31;99844.00;;;4.80;nan
37238;BME280;23129;49.662;8.448;2023-04-15T04:38:01;99834.50;;;4.79;nan
37238;BME280;23129;49.662;8.448;2023-04-15T04:40:30;99837.09;;;4.79;nan
37238;BME280;23129;49.662;8.448;2023-04-15T04:42:59;99841.41;;;4.80;nan
37238;BME280;23129;49.662;8.448;2023-04-15T04:45:28;99837.91;;;4.81;nan
37238;BME280;23129;49.662;8.448;2023-04-15T04:47:57;99838.78;;;4.83;nan
37238;BME280;23129;49.662;8.448;2023-04-15T04:50:28;99836.13;;;4.86;nan
37238;BME280;23129;49.662;8.448;2023-04-15T04:52:57;99834.38;;;4.88;nan
37238;BME280;23129;49.662;8.448;2023-04-15T04:55:27;99838.66;;;4.91;nan
37238;BME280;23129;49.662;8.448;2023-04-15T04:57:55;99842.97;;;4.90;nan
37238;BME280;23129;49.662;8.448;2023-04-15T05:00:24;99846.50;;;4.86;nan
37238;BME280;23129;49.662;8.448;2023-04-15T05:02:53;99847.41;;;4.84;nan
37238;BME280;23129;49.662;8.448;2023-04-15T05:05:22;99850.06;;;4.82;nan
37238;BME280;23129;49.662;8.448;2023-04-15T05:07:53;99855.25;;;4.82;nan
37238;BME280;23129;49.662;8.448;2023-04-15T05:10:21;99850.88;;;4.86;nan
37238;BME280;23129;49.662;8.448;2023-04-15T05:12:50;99850.78;;;4.90;nan
37238;BME280;23129;49.662;8.448;2023-04-15T05:15:19;99851.56;;;4.95;nan
37238;BME280;23129;49.662;8.448;2023-04-15T05:17:48;99855.06;;;4.94;nan
37238;BME280;23129;49.662;8.448;2023-04-15T05:20:17;99855.88;;;4.96;nan
37238;BME280;23129;49.662;8.448;2023-04-15T05:22:46;99861.97;;;4.95;nan
37238;BME280;23129;49.662;8.448;2023-04-15T05:25:16;99867.13;;;4.98;nan
37238;BME280;23129;49.662;8.448;2023-04-15T05:27:45;99868.03;;;4.97;nan
37238;BME280;23129;49.662;8.448;2023-04-15T05:30:14;99861.97;;;4.95;nan
37238;BME280;23129;49.662;8.448;2023-04-15T05:32:43;99870.66;;;4.94;nan
37238;BME280;23129;49.662;8.448;2023-04-15T05:35:12;99870.66;;;4.94;nan
37238;BME280;23129;49.662;8.448;2023-04-15T05:37:41;99872.38;;;4.95;nan
37238;BME280;23129;49.662;8.448;2023-04-15T05:40:10;99870.66;;;4.94;nan
37238;BME280;23129;49.662;8.448;2023-04-15T05:42:40;99871.50;;;4.95;nan
37238;BME280;23129;49.662;8.448;2023-04-15T05:45:10;99875.81;;;4.97;nan
37238;BME280;23129;49.662;8.448;2023-04-15T05:47:39;99869.78;;;4.95;nan
37238;BME280;23129;49.662;8.448;2023-04-15T05:50:09;99872.31;;;4.98;nan
37238;BME280;23129;49.662;8.448;2023-04-15T05:52:37;99867.94;;;5.02;nan
37238;BME280;23129;49.662;8.448;2023-04-15T05:55:07;99873.06;;;5.07;nan
37238;BME280;23129;49.662;8.448;2023-04-15T05:57:36;99869.50;;;5.14;nan
37238;BME280;23129;49.662;8.448;2023-04-15T06:00:09;99873.75;;;5.21;nan
37238;BME280;23129;49.662;8.448;2023-04-15T06:02:40;99871.91;;;5.26;nan
37238;BME280;23129;49.662;8.448;2023-04-15T06:05:09;99870.09;;;5.31;nan
37238;BME280;23129;49.662;8.448;2023-04-15T06:07:38;99871.72;;;5.38;nan
37238;BME280;23129;49.662;8.448;2023-04-15T06:10:08;99874.25;;;5.44;nan
37238;BME280;23129;49.662;8.448;2023-04-15T06:12:37;99874.09;;;5.52;nan
37238;BME280;23129;49.662;8.448;2023-04-15T06:15:08;99872.25;;;5.60;nan
37238;BME280;23129;49.662;8.448;2023-04-15T06:17:38;99883.44;;;5.64;nan
37238;BME280;23129;49.662;8.448;2023-04-15T06:20:07;99886.84;;;5.69;nan
37238;BME280;23129;49.662;8.448;2023-04-15T06:22:37;99881.56;;;5.72;nan
37238;BME280;23129;49.662;8.448;2023-04-15T06:25:07;99887.53;;;5.79;nan
37238;BME280;23129;49.662;8.448;2023-04-15T06:27:36;99886.56;;;5.84;nan
37238;BME280;23129;49.662;8.448;2023-04-15T06:30:08;99886.44;;;5.93;nan
37238;BME280;23129;49.662;8.448;2023-04-15T06:32:37;99886.25;;;6.03;nan
37238;BME280;23129;49.662;8.448;2023-04-15T06:35:06;99889.53;;;6.14;nan
37238;BME280;23129;49.662;8.448;2023-04-15T06:37:35;99897.13;;;6.25;nan
37238;BME280;23129;49.662;8.448;2023-04-15T06:40:05;99900.38;;;6.37;nan
37238;BME280;23129;49.662;8.448;2023-04-15T06:42:34;99895.84;;;6.47;nan
37238;BME280;23129;49.662;8.448;2023-04-15T06:45:07;99893.84;;;6.60;nan
37238;BME280;23129;49.662;8.448;2023-04-15T06:47:36;99897.09;;;6.71;nan
37238;BME280;23129;49.662;8.448;2023-04-15T06:50:06;99896.81;;;6.83;nan
37238;BME280;23129;49.662;8.448;2023-04-15T06:52:35;99904.38;;;6.96;nan
37238;BME280;23129;49.662;8.448;2023-04-15T06:55:05;99896.19;;;7.13;nan
37238;BME280;23129;49.662;8.448;2023-04-15T06:57:35;99896.66;;;7.30;nan
37238;BME280;23129;49.662;8.448;2023-04-15T07:00:04;99896.25;;;7.47;nan
37238;BME280;23129;49.662;8.448;2023-04-15T07:02:35;99898.56;;;7.59;nan
37238;BME280;23129;49.662;8.448;2023-04-15T07:05:05;99903.47;;;7.71;nan
37238;BME280;23129;49.662;8.448;2023-04-15T07:07:34;99892.88;;;7.77;nan
37238;BME280;23129;49.662;8.448;2023-04-15T07:10:04;99901.38;;;7.86;nan
37238;BME280;23129;49.662;8.448;2023-04-15T07:12:34;99899.38;;;7.95;nan
37238;BME280;23129;49.662;8.448;2023-04-15T07:15:04;99895.59;;;8.07;nan
37238;BME280;23129;49.662;8.448;2023-04-15T07:17:34;99899.63;;;8.19;nan
37238;BME280;23129;49.662;8.448;2023-04-15T07:20:04;99891.44;;;8.33;nan
37238;BME280;23129;49.662;8.448;2023-04-15T07:22:32;99891.94;;;8.47;nan
37238;BME280;23129;49.662;8.448;2023-04-15T07:25:01;99888.97;;;8.59;nan
37238;BME280;23129;49.662;8.448;2023-04-15T07:27:30;99895.59;;;8.71;nan
37238;BME280;23129;49.662;8.448;2023-04-15T07:29:59;99895.88;;;8.91;nan
37238;BME280;23129;49.662;8.448;2023-04-15T07:32:28;99892.31;;;9.22;nan
37238;BME280;23129;49.662;8.448;2023-04-15T07:34:58;99888.88;;;9.48;nan
37238;BME280;23129;49.662;8.448;2023-04-15T07:37:28;99888.97;;;9.72;nan
37238;BME280;23129;49.662;8.448;2023-04-15T07:39:57;99892.47;;;9.97;nan
37238;BME280;23129;49.662;8.448;2023-04-15T07:42:26;99895.19;;;10.19;nan
37238;BME280;23129;49.662;8.448;2023-04-15T07:44:56;99893.84;;;10.34;nan
37238;BME280;23129;49.662;8.448;2023-04-15T07:47:25;99889.75;;;10.50;nan
37238;BME280;23129;49.662;8.448;2023-04-15T07:49:53;99900.69;;;10.62;nan
37238;BME280;23129;49.662;8.448;2023-04-15T07:52:24;99905.63;;;10.71;nan
37238;BME280;23129;49.662;8.448;2023-04-15T07:54:53;99900.94;;;10.79;nan
37238;BME280;23129;49.662;8.448;2023-04-15T07:57:21;99901.47;;;10.89;nan
37238;BME280;23129;49.662;8.448;2023-04-15T07:59:50;99893.16;;;11.00;nan
37238;BME280;23129;49.662;8.448;2023-04-15T08:02:19;99894.41;;;11.13;nan
37238;BME280;23129;49.662;8.448;2023-04-15T08:04:48;99897.19;;;11.30;nan
37238;BME280;23129;49.662;8.448;2023-04-15T08:07:17;99901.06;;;11.43;nan
37238;BME280;23129;49.662;8.448;2023-04-15T08:09:47;99895.47;;;11.73;nan
37238;BME280;23129;49.662;8.448;2023-04-15T08:12:16;99898.50;;;11.84;nan
37238;BME280;23129;49.662;8.448;2023-04-15T08:14:45;99900.59;;;11.98;nan
37238;BME280;23129;49.662;8.448;2023-04-15T08:17:14;99893.41;;;12.22;nan
37238;BME280;23129;49.662;8.448;2023-04-15T08:19:43;99891.44;;;12.48;nan
37238;BME280;23129;49.662;8.448;2023-04-15T08:22:12;99890.69;;;12.84;nan
37238;BME280;23129;49.662;8.448;2023-04-15T08:24:43;99895.78;;;13.24;nan
37238;BME280;23129;49.662;8.448;2023-04-15T08:27:13;99901.00;;;13.62;nan
37238;BME280;23129;49.662;8.448;2023-04-15T08:29:42;99891.19;;;14.01;nan
37238;BME280;23129;49.662;8.448;2023-04-15T08:32:11;99903.78;;;14.46;nan
37238;BME280;23129;49.662;8.448;2023-04-15T08:34:40;99897.94;;;14.90;nan
37238;BME280;23129;49.662;8.448;2023-04-15T08:37:09;99889.25;;;15.20;nan
37238;BME280;23129;49.662;8.448;2023-04-15T08:39:39;99896.28;;;15.51;nan
37238;BME280;23129;49.662;8.448;2023-04-15T08:42:16;99892.25;;;15.91;nan
37238;BME280;23129;49.662;8.448;2023-04-15T08:44:45;99890.94;;;15.98;nan
37238;BME280;23129;49.662;8.448;2023-04-15T08:47:16;99895.06;;;16.03;nan
37238;BME280;23129;49.662;8.448;2023-04-15T08:49:48;99897.91;;;16.00;nan
37238;BME280;23129;49.662;8.448;2023-04-15T08:52:20;99901.38;;;16.16;nan
37238;BME280;23129;49.662;8.448;2023-04-15T08:54:49;99901.19;;;16.19;nan
37238;BME280;23129;49.662;8.448;2023-04-15T08:57:19;99901.00;;;16.22;nan
37238;BME280;23129;49.662;8.448;2023-04-15T08:59:48;99907.78;;;16.26;nan
37238;BME280;23129;49.662;8.448;2023-04-15T09:02:17;99905.16;;;16.40;nan
37238;BME280;23129;49.662;8.448;2023-04-15T09:04:46;99901.19;;;16.48;nan
37238;BME280;23129;49.662;8.448;2023-04-15T09:07:15;99906.88;;;16.70;nan
37238;BME280;23129;49.662;8.448;2023-04-15T09:09:44;99907.19;;;16.94;nan
37238;BME280;23129;49.662;8.448;2023-04-15T09:12:13;99910.88;;;17.06;nan
37238;BME280;23129;49.662;8.448;2023-04-15T09:14:45;99915.34;;;17.32;nan
37238;BME280;23129;49.662;8.448;2023-04-15T09:17:18;99917.94;;;17.47;nan
37238;BME280;23129;49.662;8.448;2023-04-15T09:19:48;99912.91;;;17.56;nan
37238;BME280;23129;49.662;8.448;2023-04-15T09:22:20;99914.19;;;17.64;nan
37238;BME280;23129;49.662;8.448;2023-04-15T09:24:49;99912.19;;;17.67;nan
37238;BME280;23129;49.662;8.448;2023-04-15T09:27:17;99914.31;;;17.89;nan
37238;BME280;23129;49.662;8.448;2023-04-15T09:29:50;99914.78;;;18.21;nan
37238;BME280;23129;49.662;8.448;2023-04-15T09:32:21;99921.19;;;18.32;nan
37238;BME280;23129;49.662;8.448;2023-04-15T09:34:51;99913.75;;;18.37;nan
37238;BME280;23129;49.662;8.448;2023-04-15T09:37:34;99919.69;;;18.53;nan
37238;BME280;23129;49.662;8.448;2023-04-15T09:40:04;99933.06;;;18.52;nan
37238;BME280;23129;49.662;8.448;2023-04-15T09:42:35;99921.38;;;18.54;nan
37238;BME280;23129;49.662;8.448;2023-04-15T09:45:11;99925.97;;;18.52;nan
37238;BME280;23129;49.662;8.448;2023-04-15T09:47:40;99931.59;;;18.35;nan
37238;BME280;23129;49.662;8.448;2023-04-15T09:50:09;99933.34;;;18.21;nan
37238;BME280;23129;49.662;8.448;2023-04-15T09:52:41;99930.69;;;18.21;nan
37238;BME280;23129;49.662;8.448;2023-04-15T09:55:12;99932.63;;;18.19;nan
37238;BME280;23129;49.662;8.448;2023-04-15T09:57:41;99944.72;;;18.11;nan
37238;BME280;23129;49.662;8.448;2023-04-15T10:00:13;99943.22;;;18.07;nan
37238;BME280;23129;49.662;8.448;2023-04-15T10:02:42;99946.63;;;18.09;nan
37238;BME280;23129;49.662;8.448;2023-04-15T10:05:14;99939.97;;;18.16;nan
37238;BME280;23129;49.662;8.448;2023-04-15T10:07:44;99942.81;;;18.13;nan
37238;BME280;23129;49.662;8.448;2023-04-15T10:10:14;99938.97;;;18.04;nan
37238;BME280;23129;49.662;8.448;2023-04-15T10:12:44;99950.84;;;17.98;nan
37238;BME280;23129;49.662;8.448;2023-04-15T10:15:16;99944.28;;;18.04;nan
37238;BME280;23129;49.662;8.448;2023-04-15T10:17:47;99948.78;;;18.16;nan
37238;BME280;23129;49.662;8.448;2023-04-15T10:20:19;99944.19;;;18.18;nan
37238;BME280;23129;49.662;8.448;2023-04-15T10:22:48;99948.97;;;18.13;nan
37238;BME280;23129;49.662;8.448;2023-04-15T10:25:17;99952.03;;;18.07;nan
37238;BME280;23129;49.662;8.448;2023-04-15T10:27:46;99950.31;;;18.06;nan
37238;BME280;23129;49.662;8.448;2023-04-15T10:30:17;99954.50;;;18.10;nan
37238;BME280;23129;49.662;8.448;2023-04-15T10:32:47;99957.44;;;18.06;nan
37238;BME280;23129;49.662;8.448;2023-04-15T10:35:17;99960.66;;;18.11;nan
37238;BME280;23129;49.662;8.448;2023-04-15T10:37:46;99965.53;;;18.04;nan
37238;BME280;23129;49.662;8.448;2023-04-15T10:40:26;99964.56;;;18.18;nan
37238;BME280;23129;49.662;8.448;2023-04-15T10:42:56;99961.72;;;18.21;nan
37238;BME280;23129;49.662;8.448;2023-04-15T10:45:28;99966.72;;;18.25;nan
37238;BME280;23129;49.662;8.448;2023-04-15T10:48:02;99977.63;;;18.08;nan
37238;BME280;23129;49.662;8.448;2023-04-15T10:50:31;99975.03;;;17.94;nan
37238;BME280;23129;49.662;8.448;2023-04-15T10:53:03;99974.81;;;17.97;nan
37238;BME280;23129;49.662;8.448;2023-04-15T10:55:33;99981.44;;;18.04;nan
37238;BME280;23129;49.662;8.448;2023-04-15T10:58:02;99982.38;;;18.03;nan
37238;BME280;23129;49.662;8.448;2023-04-15T11:00:32;99977.59;;;17.95;nan
37238;BME280;23129;49.662;8.448;2023-04-15T11:03:07;99978.84;;;17.75;nan
37238;BME280;23129;49.662;8.448;2023-04-15T11:05:50;99984.19;;;17.61;nan
37238;BME280;23129;49.662;8.448;2023-04-15T11:08:19;99985.19;;;17.46;nan
37238;BME280;23129;49.662;8.448;2023-04-15T11:11:08;99987.28;;;17.41;nan
37238;BME280;23129;49.662;8.448;2023-04-15T11:13:47;99981.56;;;17.47;nan
37238;BME280;23129;49.662;8.448;2023-04-15T11:16:17;99986.34;;;17.42;nan
37238;BME280;23129;49.662;8.448;2023-04-15T11:18:55;99989.66;;;17.45;nan
37238;BME280;23129;49.662;8.448;2023-04-15T11:21:24;99991.66;;;17.42;nan
37238;BME280;23129;49.662;8.448;2023-04-15T11:23:54;99985.56;;;17.40;nan
37238;BME280;23129;49.662;8.448;2023-04-15T11:26:25;99985.78;;;17.37;nan
37238;BME280;23129;49.662;8.448;2023-04-15T11:28:54;99983.13;;;17.22;nan
37238;BME280;23129;49.662;8.448;2023-04-15T11:31:27;99991.59;;;17.15;nan
37238;BME280;23129;49.662;8.448;2023-04-15T11:33:58;99987.72;;;17.06;nan
37238;BME280;23129;49.662;8.448;2023-04-15T11:36:29;99993.75;;;17.08;nan
37238;BME280;23129;49.662;8.448;2023-04-15T11:38:59;99993.75;;;17.08;nan
37238;BME280;23129;49.662;8.448;2023-04-15T11:41:28;99998.31;;;17.06;nan
37238;BME280;23129;49.662;8.448;2023-04-15T11:43:56;100010.97;;;17.01;nan
37238;BME280;23129;49.662;8.448;2023-04-15T11:46:30;100001.16;;;17.03;nan
37238;BME280;23129;49.662;8.448;2023-04-15T11:48:59;100001.03;;;17.04;nan
37238;BME280;23129;49.662;8.448;2023-04-15T11:51:32;100002.84;;;17.18;nan
37238;BME280;23129;49.662;8.448;2023-04-15T11:54:01;100005.69;;;17.29;nan
37238;BME280;23129;49.662;8.448;2023-04-15T11:56:31;100003.19;;;17.41;nan
37238;BME280;23129;49.662;8.448;2023-04-15T11:59:00;100010.19;;;17.56;nan
37238;BME280;23129;49.662;8.448;2023-04-15T12:01:34;100002.94;;;17.72;nan
37238;BME280;23129;49.662;8.448;2023-04-15T12:04:10;100011.09;;;17.84;nan
37238;BME280;23129;49.662;8.448;2023-04-15T12:06:39;100001.56;;;17.94;nan
37238;BME280;23129;49.662;8.448;2023-04-15T12:09:10;100002.13;;;17.99;nan
37238;BME280;23129;49.662;8.448;2023-04-15T12:11:42;99998.75;;;17.83;nan
37238;BME280;23129;49.662;8.448;2023-04-15T12:14:18;100003.53;;;17.63;nan
37238;BME280;23129;49.662;8.448;2023-04-15T12:16:51;100003.09;;;17.42;nan
37238;BME280;23129;49.662;8.448;2023-04-15T12:19:26;100008.59;;;17.25;nan
37238;BME280;23129;49.662;8.448;2023-04-15T12:21:58;100008.53;;;17.12;nan
37238;BME280;23129;49.662;8.448;2023-04-15T12:24:30;100014.47;;;17.01;nan
37238;BME280;23129;49.662;8.448;2023-04-15T12:27:02;100011.53;;;16.92;nan
37238;BME280;23129;49.662;8.448;2023-04-15T12:29:33;100020.13;;;16.81;nan
37238;BME280;23129;49.662;8.448;2023-04-15T12:32:06;100026.72;;;16.74;nan
37238;BME280;23129;49.662;8.448;2023-04-15T12:34:37;100024.75;;;16.77;nan
37238;BME280;23129;49.662;8.448;2023-04-15T12:37:08;100024.41;;;16.83;nan
37238;BME280;23129;49.662;8.448;2023-04-15T12:39:39;100029.50;;;16.86;nan
37238;BME280;23129;49.662;8.448;2023-04-15T12:42:08;100034.81;;;16.86;nan
37238;BME280;23129;49.662;8.448;2023-04-15T12:44:38;100036.91;;;16.81;nan
37238;BME280;23129;49.662;8.448;2023-04-15T12:47:11;100038.41;;;16.85;nan
37238;BME280;23129;49.662;8.448;2023-04-15T12:49:40;100042.69;;;16.88;nan
37238;BME280;23129;49.662;8.448;2023-04-15T12:52:08;100049.00;;;16.85;nan
37238;BME280;23129;49.662;8.448;2023-04-15T12:54:38;100050.88;;;16.83;nan
37238;BME280;23129;49.662;8.448;2023-04-15T12:57:07;100061.84;;;16.77;nan
37238;BME280;23129;49.662;8.448;2023-04-15T12:59:36;100064.25;;;16.66;nan
37238;BME280;23129;49.662;8.448;2023-04-15T13:02:05;100071.81;;;16.58;nan
37238;BME280;23129;49.662;8.448;2023-04-15T13:04:36;100080.69;;;16.57;nan
37238;BME280;23129;49.662;8.448;2023-04-15T13:07:04;100076.75;;;16.48;nan
37238;BME280;23129;49.662;8.448;2023-04-15T13:09:33;100078.00;;;16.42;nan
37238;BME280;23129;49.662;8.448;2023-04-15T13:12:02;100074.75;;;16.37;nan
37238;BME280;23129;49.662;8.448;2023-04-15T13:14:31;100074.75;;;16.37;nan
37238;BME280;23129;49.662;8.448;2023-04-15T13:17:00;100079.69;;;16.43;nan
37238;BME280;23129;49.662;8.448;2023-04-15T13:19:30;100084.09;;;16.59;nan
37238;BME280;23129;49.662;8.448;2023-04-15T13:22:00;100074.66;;;16.69;nan
37238;BME280;23129;49.662;8.448;2023-04-15T13:24:29;100077.75;;;16.77;nan
37238;BME280;23129;49.662;8.448;2023-04-15T13:26:58;100087.78;;;16.86;nan
37238;BME280;23129;49.662;8.448;2023-04-15T13:29:27;100083.84;;;16.94;nan
37238;BME280;23129;49.662;8.448;2023-04-15T13:31:55;100091.59;;;16.97;nan
37238;BME280;23129;49.662;8.448;2023-04-15T13:34:24;100098.53;;;16.99;nan
37238;BME280;23129;49.662;8.448;2023-04-15T13:36:53;100095.56;;;17.04;nan
37238;BME280;23129;49.662;8.448;2023-04-15T13:39:23;100100.69;;;17.07;nan
37238;BME280;23129;49.662;8.448;2023-04-15T13:41:53;100112.31;;;17.04;nan